Aviation Digital Data Service (ADDS)

Output produced by METARs form (2054 UTC 17 November 2019)
found at http://www.aviationweather.gov/metar/data/
 
Forecast for: WBGS (SIBU , MY)
Text: TAF WBGS 171700Z 1718/1818 VRB03KT 9999 SCT018
Forecast period: 1800 UTC 17 November 2019 to 1800 UTC 18 November 2019
Forecast type: FROM: standard forecast or significant change
Winds: variable direction winds at 3 MPH (3 knots; 1.5 m/s)
Visibility: 6 or more miles 10+ km)
Ceiling: at least 12,000 feet AGL
Clouds: scattered clouds at 1800 feet AGL
Weather: no significant weather forecast for this period
Text: TEMPO 1720/1800 4000 TSRA FEW015CB
Forecast period: 2000 UTC 17 November 2019 to 0000 UTC 18 November 2019
Forecast type: TEMPORARY: The following changes expected for less than half the time period
Visibility: 2.49 miles (4.01 km)
Ceiling: at least 12,000 feet AGL
Clouds: few clouds at 1500 feet AGL
Weather: TSRA  (rain associated with thunderstorm(s))